CUV weather

Casigua El Cubo Airport
Casigua El Cubo, Zulia, Venezuela

Public forecast

Using degrees Celsius for public forecast. Weather courtesy of forecast.io.

METAR (pilot weather report)

Report is more than 6 hours old.

Closest report is La Fria Airport, 34.9 nm (64.7 km) SSE. Retrieved 2017/09/20 18:00 UTC (2 years ago):

SVLF 201800Z 00000KT 9999 SCT040 XX/XX Q1010

TAF (pilot weather forecast)

Closest forecast is Camilo Daza International Airport, 49.9 nm (92.4 km) S. Retrieved 2019/04/18 06:33 UTC (3 hours ago):

TAF SKCC 180500Z 1806/1906 36005KT 7000 VCFG SCT015 BKN090 TEMPO 1809/1813 4000 BCFG BKN012 TEMPO 1819/1822 02012KT TX30/1819Z TN24/1811Z